sensor_id;sensor_type;location;lat;lon;timestamp;P1;durP1;ratioP1;P2;durP2;ratioP2
56567;SDS011;42456;49.956;20.004;2023-11-21T00:00:35;7.90;;;4.10;;
56567;SDS011;42456;49.956;20.004;2023-11-21T00:03:02;6.60;;;3.80;;
56567;SDS011;42456;49.956;20.004;2023-11-21T00:05:31;8.60;;;3.90;;
56567;SDS011;42456;49.956;20.004;2023-11-21T00:07:58;7.00;;;3.90;;
56567;SDS011;42456;49.956;20.004;2023-11-21T00:10:25;7.90;;;3.90;;
56567;SDS011;42456;49.956;20.004;2023-11-21T00:12:52;6.80;;;3.70;;
56567;SDS011;42456;49.956;20.004;2023-11-21T00:17:48;8.10;;;3.80;;
56567;SDS011;42456;49.956;20.004;2023-11-21T00:20:15;8.50;;;4.20;;
56567;SDS011;42456;49.956;20.004;2023-11-21T00:22:42;7.30;;;4.20;;
56567;SDS011;42456;49.956;20.004;2023-11-21T00:25:09;6.30;;;3.90;;
56567;SDS011;42456;49.956;20.004;2023-11-21T00:27:36;8.80;;;4.40;;
56567;SDS011;42456;49.956;20.004;2023-11-21T00:30:03;6.00;;;3.70;;
56567;SDS011;42456;49.956;20.004;2023-11-21T00:32:32;7.10;;;3.60;;
56567;SDS011;42456;49.956;20.004;2023-11-21T00:34:59;7.00;;;3.80;;
56567;SDS011;42456;49.956;20.004;2023-11-21T00:37:26;6.20;;;3.80;;
56567;SDS011;42456;49.956;20.004;2023-11-21T00:39:53;7.80;;;4.00;;
56567;SDS011;42456;49.956;20.004;2023-11-21T00:42:20;6.80;;;4.30;;
56567;SDS011;42456;49.956;20.004;2023-11-21T00:44:48;7.50;;;3.90;;
56567;SDS011;42456;49.956;20.004;2023-11-21T00:47:14;8.00;;;4.00;;
56567;SDS011;42456;49.956;20.004;2023-11-21T00:49:41;5.90;;;3.70;;
56567;SDS011;42456;49.956;20.004;2023-11-21T00:52:09;8.50;;;3.70;;
56567;SDS011;42456;49.956;20.004;2023-11-21T00:54:36;6.10;;;3.60;;
56567;SDS011;42456;49.956;20.004;2023-11-21T00:57:03;5.90;;;3.60;;
56567;SDS011;42456;49.956;20.004;2023-11-21T00:59:30;6.70;;;3.70;;
56567;SDS011;42456;49.956;20.004;2023-11-21T01:01:57;5.30;;;3.50;;
56567;SDS011;42456;49.956;20.004;2023-11-21T01:04:26;7.50;;;3.80;;
56567;SDS011;42456;49.956;20.004;2023-11-21T01:06:54;6.40;;;2.90;;
56567;SDS011;42456;49.956;20.004;2023-11-21T01:09:21;6.20;;;3.60;;
56567;SDS011;42456;49.956;20.004;2023-11-21T01:11:48;7.80;;;3.90;;
56567;SDS011;42456;49.956;20.004;2023-11-21T01:14:15;7.00;;;3.60;;
56567;SDS011;42456;49.956;20.004;2023-11-21T01:16:44;7.60;;;3.60;;
56567;SDS011;42456;49.956;20.004;2023-11-21T01:19:11;8.70;;;3.90;;
56567;SDS011;42456;49.956;20.004;2023-11-21T01:21:38;6.70;;;4.00;;
56567;SDS011;42456;49.956;20.004;2023-11-21T01:24:05;9.30;;;4.00;;
56567;SDS011;42456;49.956;20.004;2023-11-21T01:26:34;6.70;;;3.70;;
56567;SDS011;42456;49.956;20.004;2023-11-21T01:29:01;7.70;;;3.60;;
56567;SDS011;42456;49.956;20.004;2023-11-21T01:31:28;7.30;;;3.90;;
56567;SDS011;42456;49.956;20.004;2023-11-21T01:33:56;6.40;;;3.80;;
56567;SDS011;42456;49.956;20.004;2023-11-21T01:36:29;8.30;;;3.90;;
56567;SDS011;42456;49.956;20.004;2023-11-21T01:38:58;6.60;;;3.40;;
56567;SDS011;42456;49.956;20.004;2023-11-21T01:41:26;8.10;;;4.00;;
56567;SDS011;42456;49.956;20.004;2023-11-21T01:43:55;7.10;;;4.00;;
56567;SDS011;42456;49.956;20.004;2023-11-21T01:46:23;6.00;;;3.40;;
56567;SDS011;42456;49.956;20.004;2023-11-21T01:48:51;8.20;;;3.60;;
56567;SDS011;42456;49.956;20.004;2023-11-21T01:51:19;8.60;;;4.20;;
56567;SDS011;42456;49.956;20.004;2023-11-21T01:53:47;8.30;;;3.80;;
56567;SDS011;42456;49.956;20.004;2023-11-21T01:56:14;8.40;;;4.20;;
56567;SDS011;42456;49.956;20.004;2023-11-21T01:58:41;8.70;;;4.30;;
56567;SDS011;42456;49.956;20.004;2023-11-21T02:01:10;7.30;;;4.10;;
56567;SDS011;42456;49.956;20.004;2023-11-21T02:03:36;5.90;;;3.70;;
56567;SDS011;42456;49.956;20.004;2023-11-21T02:06:03;6.60;;;3.60;;
56567;SDS011;42456;49.956;20.004;2023-11-21T02:08:31;7.80;;;3.50;;
56567;SDS011;42456;49.956;20.004;2023-11-21T02:10:58;6.30;;;3.70;;
56567;SDS011;42456;49.956;20.004;2023-11-21T02:13:25;5.40;;;3.40;;
56567;SDS011;42456;49.956;20.004;2023-11-21T02:15:52;6.60;;;3.80;;
56567;SDS011;42456;49.956;20.004;2023-11-21T02:18:21;7.20;;;3.60;;
56567;SDS011;42456;49.956;20.004;2023-11-21T02:20:48;4.50;;;3.00;;
56567;SDS011;42456;49.956;20.004;2023-11-21T02:23:15;8.20;;;4.20;;
56567;SDS011;42456;49.956;20.004;2023-11-21T02:25:42;6.10;;;3.90;;
56567;SDS011;42456;49.956;20.004;2023-11-21T02:28:09;8.10;;;4.20;;
56567;SDS011;42456;49.956;20.004;2023-11-21T02:30:39;7.20;;;3.90;;
56567;SDS011;42456;49.956;20.004;2023-11-21T02:33:06;6.80;;;4.10;;
56567;SDS011;42456;49.956;20.004;2023-11-21T02:35:34;8.40;;;3.70;;
56567;SDS011;42456;49.956;20.004;2023-11-21T02:38:01;8.20;;;3.80;;
56567;SDS011;42456;49.956;20.004;2023-11-21T02:40:28;8.00;;;3.60;;
56567;SDS011;42456;49.956;20.004;2023-11-21T02:42:56;6.60;;;3.70;;
56567;SDS011;42456;49.956;20.004;2023-11-21T02:45:26;6.70;;;3.60;;
56567;SDS011;42456;49.956;20.004;2023-11-21T02:47:53;7.30;;;3.90;;
56567;SDS011;42456;49.956;20.004;2023-11-21T02:50:21;8.80;;;4.10;;
56567;SDS011;42456;49.956;20.004;2023-11-21T02:52:49;10.00;;;3.90;;
56567;SDS011;42456;49.956;20.004;2023-11-21T02:55:17;8.20;;;4.10;;
56567;SDS011;42456;49.956;20.004;2023-11-21T02:57:44;6.70;;;3.50;;
56567;SDS011;42456;49.956;20.004;2023-11-21T03:00:11;8.60;;;4.00;;
56567;SDS011;42456;49.956;20.004;2023-11-21T03:02:41;8.20;;;4.20;;
56567;SDS011;42456;49.956;20.004;2023-11-21T03:05:10;7.80;;;3.50;;
56567;SDS011;42456;49.956;20.004;2023-11-21T03:07:38;9.80;;;3.40;;
56567;SDS011;42456;49.956;20.004;2023-11-21T03:10:06;8.70;;;3.80;;
56567;SDS011;42456;49.956;20.004;2023-11-21T03:12:36;7.40;;;3.50;;
56567;SDS011;42456;49.956;20.004;2023-11-21T03:15:05;6.80;;;3.60;;
56567;SDS011;42456;49.956;20.004;2023-11-21T03:17:33;8.20;;;3.60;;
56567;SDS011;42456;49.956;20.004;2023-11-21T03:20:04;5.60;;;3.30;;
56567;SDS011;42456;49.956;20.004;2023-11-21T03:22:32;6.00;;;3.20;;
56567;SDS011;42456;49.956;20.004;2023-11-21T03:25:00;8.10;;;3.30;;
56567;SDS011;42456;49.956;20.004;2023-11-21T03:27:27;5.90;;;2.90;;
56567;SDS011;42456;49.956;20.004;2023-11-21T03:29:54;5.50;;;3.20;;
56567;SDS011;42456;49.956;20.004;2023-11-21T03:32:22;8.10;;;3.90;;
56567;SDS011;42456;49.956;20.004;2023-11-21T03:34:57;12.00;;;5.80;;
56567;SDS011;42456;49.956;20.004;2023-11-21T03:37:26;9.10;;;4.30;;
56567;SDS011;42456;49.956;20.004;2023-11-21T03:39:55;6.70;;;3.40;;
56567;SDS011;42456;49.956;20.004;2023-11-21T03:42:23;8.40;;;3.70;;
56567;SDS011;42456;49.956;20.004;2023-11-21T03:44:53;6.20;;;2.90;;
56567;SDS011;42456;49.956;20.004;2023-11-21T03:47:20;6.10;;;3.80;;
56567;SDS011;42456;49.956;20.004;2023-11-21T03:49:47;5.40;;;3.10;;
56567;SDS011;42456;49.956;20.004;2023-11-21T03:52:15;8.50;;;3.20;;
56567;SDS011;42456;49.956;20.004;2023-11-21T03:54:42;8.10;;;3.30;;
56567;SDS011;42456;49.956;20.004;2023-11-21T03:57:09;7.40;;;3.90;;
56567;SDS011;42456;49.956;20.004;2023-11-21T03:59:39;6.20;;;3.40;;
56567;SDS011;42456;49.956;20.004;2023-11-21T04:02:07;4.70;;;2.50;;
56567;SDS011;42456;49.956;20.004;2023-11-21T04:04:35;9.10;;;3.30;;
56567;SDS011;42456;49.956;20.004;2023-11-21T04:07:03;6.00;;;2.90;;
56567;SDS011;42456;49.956;20.004;2023-11-21T04:09:31;7.60;;;4.00;;
56567;SDS011;42456;49.956;20.004;2023-11-21T04:11:57;6.90;;;3.60;;
56567;SDS011;42456;49.956;20.004;2023-11-21T04:14:24;9.30;;;4.10;;
56567;SDS011;42456;49.956;20.004;2023-11-21T04:16:51;7.70;;;4.00;;
56567;SDS011;42456;49.956;20.004;2023-11-21T04:19:18;9.70;;;4.50;;
56567;SDS011;42456;49.956;20.004;2023-11-21T04:21:45;6.60;;;3.60;;
56567;SDS011;42456;49.956;20.004;2023-11-21T04:24:12;8.30;;;3.70;;
56567;SDS011;42456;49.956;20.004;2023-11-21T04:26:39;7.20;;;3.40;;
56567;SDS011;42456;49.956;20.004;2023-11-21T04:29:06;7.10;;;3.60;;
56567;SDS011;42456;49.956;20.004;2023-11-21T04:31:32;7.30;;;3.50;;
56567;SDS011;42456;49.956;20.004;2023-11-21T04:33:59;11.50;;;4.00;;
56567;SDS011;42456;49.956;20.004;2023-11-21T04:36:27;10.50;;;3.80;;
56567;SDS011;42456;49.956;20.004;2023-11-21T04:38:54;6.90;;;3.60;;
56567;SDS011;42456;49.956;20.004;2023-11-21T04:41:21;9.20;;;3.80;;
56567;SDS011;42456;49.956;20.004;2023-11-21T04:43:48;7.80;;;3.60;;
56567;SDS011;42456;49.956;20.004;2023-11-21T04:46:15;6.10;;;3.30;;
56567;SDS011;42456;49.956;20.004;2023-11-21T04:48:42;7.70;;;3.80;;
56567;SDS011;42456;49.956;20.004;2023-11-21T04:51:09;8.00;;;4.00;;
56567;SDS011;42456;49.956;20.004;2023-11-21T04:53:39;7.90;;;3.30;;
56567;SDS011;42456;49.956;20.004;2023-11-21T04:56:06;8.70;;;3.80;;
56567;SDS011;42456;49.956;20.004;2023-11-21T04:58:33;8.20;;;4.30;;
56567;SDS011;42456;49.956;20.004;2023-11-21T05:01:00;8.10;;;4.20;;
56567;SDS011;42456;49.956;20.004;2023-11-21T05:03:28;8.10;;;4.40;;
56567;SDS011;42456;49.956;20.004;2023-11-21T05:05:56;9.40;;;5.00;;
56567;SDS011;42456;49.956;20.004;2023-11-21T05:08:23;10.90;;;5.30;;
56567;SDS011;42456;49.956;20.004;2023-11-21T05:10:50;9.70;;;5.10;;
56567;SDS011;42456;49.956;20.004;2023-11-21T05:13:20;11.90;;;5.10;;
56567;SDS011;42456;49.956;20.004;2023-11-21T05:15:47;10.70;;;5.40;;
56567;SDS011;42456;49.956;20.004;2023-11-21T05:18:14;11.50;;;5.80;;
56567;SDS011;42456;49.956;20.004;2023-11-21T05:20:41;10.10;;;5.00;;
56567;SDS011;42456;49.956;20.004;2023-11-21T05:23:07;13.10;;;5.70;;
56567;SDS011;42456;49.956;20.004;2023-11-21T05:25:34;9.20;;;4.40;;
56567;SDS011;42456;49.956;20.004;2023-11-21T05:28:06;9.20;;;4.80;;
56567;SDS011;42456;49.956;20.004;2023-11-21T05:30:33;9.10;;;4.80;;
56567;SDS011;42456;49.956;20.004;2023-11-21T05:33:00;9.00;;;5.00;;
56567;SDS011;42456;49.956;20.004;2023-11-21T05:35:27;8.50;;;4.40;;
56567;SDS011;42456;49.956;20.004;2023-11-21T05:37:54;9.70;;;4.30;;
56567;SDS011;42456;49.956;20.004;2023-11-21T05:40:20;7.70;;;4.60;;
56567;SDS011;42456;49.956;20.004;2023-11-21T05:42:50;7.50;;;4.20;;
56567;SDS011;42456;49.956;20.004;2023-11-21T05:45:18;9.20;;;4.30;;
56567;SDS011;42456;49.956;20.004;2023-11-21T05:47:45;12.00;;;5.10;;
56567;SDS011;42456;49.956;20.004;2023-11-21T05:50:14;9.70;;;5.00;;
56567;SDS011;42456;49.956;20.004;2023-11-21T05:52:43;9.90;;;4.80;;
56567;SDS011;42456;49.956;20.004;2023-11-21T05:55:11;10.20;;;5.00;;
56567;SDS011;42456;49.956;20.004;2023-11-21T05:57:40;11.30;;;5.40;;
56567;SDS011;42456;49.956;20.004;2023-11-21T06:00:09;9.90;;;5.10;;
56567;SDS011;42456;49.956;20.004;2023-11-21T06:02:39;12.80;;;5.60;;
56567;SDS011;42456;49.956;20.004;2023-11-21T06:05:07;11.20;;;5.90;;
56567;SDS011;42456;49.956;20.004;2023-11-21T06:07:35;11.70;;;6.50;;
56567;SDS011;42456;49.956;20.004;2023-11-21T06:10:03;12.20;;;6.30;;
56567;SDS011;42456;49.956;20.004;2023-11-21T06:12:32;13.70;;;6.40;;
56567;SDS011;42456;49.956;20.004;2023-11-21T06:15:02;12.70;;;5.60;;
56567;SDS011;42456;49.956;20.004;2023-11-21T06:17:35;12.70;;;6.30;;
56567;SDS011;42456;49.956;20.004;2023-11-21T06:20:03;14.00;;;6.50;;
56567;SDS011;42456;49.956;20.004;2023-11-21T06:22:36;10.80;;;6.10;;
56567;SDS011;42456;49.956;20.004;2023-11-21T06:25:04;13.20;;;7.00;;
56567;SDS011;42456;49.956;20.004;2023-11-21T06:27:33;12.90;;;6.90;;
56567;SDS011;42456;49.956;20.004;2023-11-21T06:30:00;14.10;;;7.10;;
56567;SDS011;42456;49.956;20.004;2023-11-21T06:32:28;10.90;;;6.40;;
56567;SDS011;42456;49.956;20.004;2023-11-21T06:34:56;13.90;;;6.90;;
56567;SDS011;42456;49.956;20.004;2023-11-21T06:37:26;13.50;;;6.70;;
56567;SDS011;42456;49.956;20.004;2023-11-21T06:39:53;10.00;;;5.80;;
56567;SDS011;42456;49.956;20.004;2023-11-21T06:42:20;10.70;;;5.70;;
56567;SDS011;42456;49.956;20.004;2023-11-21T06:44:47;13.00;;;6.50;;
56567;SDS011;42456;49.956;20.004;2023-11-21T06:47:15;10.50;;;6.00;;
56567;SDS011;42456;49.956;20.004;2023-11-21T06:49:42;12.00;;;5.90;;
56567;SDS011;42456;49.956;20.004;2023-11-21T06:52:09;11.40;;;5.80;;
56567;SDS011;42456;49.956;20.004;2023-11-21T06:54:36;13.90;;;6.10;;
56567;SDS011;42456;49.956;20.004;2023-11-21T06:57:03;8.00;;;4.60;;
56567;SDS011;42456;49.956;20.004;2023-11-21T06:59:30;9.60;;;5.40;;
56567;SDS011;42456;49.956;20.004;2023-11-21T07:01:57;11.80;;;6.10;;
56567;SDS011;42456;49.956;20.004;2023-11-21T07:04:24;12.80;;;6.10;;
56567;SDS011;42456;49.956;20.004;2023-11-21T07:06:55;9.20;;;5.00;;
56567;SDS011;42456;49.956;20.004;2023-11-21T07:11:48;10.80;;;5.90;;
56567;SDS011;42456;49.956;20.004;2023-11-21T07:14:16;10.00;;;5.70;;
56567;SDS011;42456;49.956;20.004;2023-11-21T07:16:43;11.70;;;6.40;;
56567;SDS011;42456;49.956;20.004;2023-11-21T07:19:10;9.30;;;5.50;;
56567;SDS011;42456;49.956;20.004;2023-11-21T07:21:38;12.20;;;6.30;;
56567;SDS011;42456;49.956;20.004;2023-11-21T07:24:07;12.10;;;6.40;;
56567;SDS011;42456;49.956;20.004;2023-11-21T07:26:35;13.90;;;6.20;;
56567;SDS011;42456;49.956;20.004;2023-11-21T07:29:02;11.50;;;5.70;;
56567;SDS011;42456;49.956;20.004;2023-11-21T07:31:29;12.00;;;5.40;;
56567;SDS011;42456;49.956;20.004;2023-11-21T07:33:58;9.70;;;5.50;;
56567;SDS011;42456;49.956;20.004;2023-11-21T07:36:24;11.40;;;5.50;;
56567;SDS011;42456;49.956;20.004;2023-11-21T07:38:52;10.10;;;4.90;;
56567;SDS011;42456;49.956;20.004;2023-11-21T07:41:19;11.10;;;5.70;;
56567;SDS011;42456;49.956;20.004;2023-11-21T07:43:56;13.50;;;5.90;;
56567;SDS011;42456;49.956;20.004;2023-11-21T07:46:25;11.30;;;6.20;;
56567;SDS011;42456;49.956;20.004;2023-11-21T07:48:54;11.70;;;6.40;;
56567;SDS011;42456;49.956;20.004;2023-11-21T07:51:21;12.30;;;6.00;;
56567;SDS011;42456;49.956;20.004;2023-11-21T07:53:49;14.20;;;6.50;;
56567;SDS011;42456;49.956;20.004;2023-11-21T07:56:16;13.70;;;6.30;;
56567;SDS011;42456;49.956;20.004;2023-11-21T07:58:44;11.70;;;6.40;;
56567;SDS011;42456;49.956;20.004;2023-11-21T08:01:12;11.10;;;6.00;;
56567;SDS011;42456;49.956;20.004;2023-11-21T08:03:39;13.10;;;6.10;;
56567;SDS011;42456;49.956;20.004;2023-11-21T08:06:06;12.40;;;6.20;;
56567;SDS011;42456;49.956;20.004;2023-11-21T08:08:34;11.40;;;6.00;;
56567;SDS011;42456;49.956;20.004;2023-11-21T08:11:01;14.10;;;6.20;;
56567;SDS011;42456;49.956;20.004;2023-11-21T08:13:28;12.70;;;6.50;;
56567;SDS011;42456;49.956;20.004;2023-11-21T08:15:57;11.00;;;5.40;;
56567;SDS011;42456;49.956;20.004;2023-11-21T08:18:34;10.10;;;5.70;;
56567;SDS011;42456;49.956;20.004;2023-11-21T08:21:02;13.00;;;6.60;;
56567;SDS011;42456;49.956;20.004;2023-11-21T08:23:29;10.90;;;5.90;;
56567;SDS011;42456;49.956;20.004;2023-11-21T08:25:56;12.90;;;6.50;;
56567;SDS011;42456;49.956;20.004;2023-11-21T08:28:23;12.00;;;6.00;;
56567;SDS011;42456;49.956;20.004;2023-11-21T08:30:52;15.20;;;6.50;;
56567;SDS011;42456;49.956;20.004;2023-11-21T08:33:21;12.60;;;6.00;;
56567;SDS011;42456;49.956;20.004;2023-11-21T08:35:48;11.40;;;6.30;;
56567;SDS011;42456;49.956;20.004;2023-11-21T08:38:16;12.60;;;6.10;;
56567;SDS011;42456;49.956;20.004;2023-11-21T08:40:43;10.00;;;5.30;;
56567;SDS011;42456;49.956;20.004;2023-11-21T08:43:10;15.50;;;6.50;;
56567;SDS011;42456;49.956;20.004;2023-11-21T08:45:38;10.30;;;5.90;;
56567;SDS011;42456;49.956;20.004;2023-11-21T08:48:05;12.30;;;5.70;;
56567;SDS011;42456;49.956;20.004;2023-11-21T08:50:32;12.20;;;6.20;;
56567;SDS011;42456;49.956;20.004;2023-11-21T08:53:00;12.30;;;6.00;;
56567;SDS011;42456;49.956;20.004;2023-11-21T08:55:27;14.20;;;6.50;;
56567;SDS011;42456;49.956;20.004;2023-11-21T08:57:55;11.50;;;6.20;;
56567;SDS011;42456;49.956;20.004;2023-11-21T09:00:24;14.30;;;6.20;;
56567;SDS011;42456;49.956;20.004;2023-11-21T09:02:51;14.30;;;6.80;;
56567;SDS011;42456;49.956;20.004;2023-11-21T09:05:18;12.40;;;6.20;;
56567;SDS011;42456;49.956;20.004;2023-11-21T09:07:47;12.30;;;6.40;;
56567;SDS011;42456;49.956;20.004;2023-11-21T09:10:15;15.10;;;7.30;;
56567;SDS011;42456;49.956;20.004;2023-11-21T09:12:42;10.50;;;6.00;;
56567;SDS011;42456;49.956;20.004;2023-11-21T09:15:09;12.90;;;6.70;;
56567;SDS011;42456;49.956;20.004;2023-11-21T09:17:38;13.10;;;6.50;;
56567;SDS011;42456;49.956;20.004;2023-11-21T09:20:06;10.00;;;5.10;;
56567;SDS011;42456;49.956;20.004;2023-11-21T09:22:37;13.60;;;6.70;;
56567;SDS011;42456;49.956;20.004;2023-11-21T09:25:05;12.90;;;6.30;;
56567;SDS011;42456;49.956;20.004;2023-11-21T09:27:33;13.50;;;7.00;;
56567;SDS011;42456;49.956;20.004;2023-11-21T09:29:59;12.60;;;6.00;;
56567;SDS011;42456;49.956;20.004;2023-11-21T09:32:26;14.20;;;7.00;;
56567;SDS011;42456;49.956;20.004;2023-11-21T09:34:54;14.20;;;7.70;;
56567;SDS011;42456;49.956;20.004;2023-11-21T09:37:24;15.50;;;7.50;;
56567;SDS011;42456;49.956;20.004;2023-11-21T09:39:54;14.40;;;7.40;;
56567;SDS011;42456;49.956;20.004;2023-11-21T09:47:40;16.40;;;7.60;;
56567;SDS011;42456;49.956;20.004;2023-11-21T09:50:09;15.40;;;7.80;;
56567;SDS011;42456;49.956;20.004;2023-11-21T09:55:25;16.00;;;8.30;;
56567;SDS011;42456;49.956;20.004;2023-11-21T10:01:08;16.60;;;7.50;;
56567;SDS011;42456;49.956;20.004;2023-11-21T10:03:36;16.20;;;7.90;;
56567;SDS011;42456;49.956;20.004;2023-11-21T10:06:05;16.40;;;8.30;;
56567;SDS011;42456;49.956;20.004;2023-11-21T10:08:35;16.50;;;8.40;;
56567;SDS011;42456;49.956;20.004;2023-11-21T10:11:15;15.10;;;7.30;;
56567;SDS011;42456;49.956;20.004;2023-11-21T10:13:46;13.50;;;6.00;;
56567;SDS011;42456;49.956;20.004;2023-11-21T10:16:16;12.50;;;6.70;;
56567;SDS011;42456;49.956;20.004;2023-11-21T10:18:49;13.50;;;7.00;;
56567;SDS011;42456;49.956;20.004;2023-11-21T10:21:37;13.40;;;6.20;;
56567;SDS011;42456;49.956;20.004;2023-11-21T10:24:06;17.80;;;8.60;;
56567;SDS011;42456;49.956;20.004;2023-11-21T10:26:33;13.10;;;6.60;;
56567;SDS011;42456;49.956;20.004;2023-11-21T10:29:16;12.20;;;6.00;;
56567;SDS011;42456;49.956;20.004;2023-11-21T10:31:45;14.40;;;7.10;;
56567;SDS011;42456;49.956;20.004;2023-11-21T10:34:12;12.10;;;6.00;;
56567;SDS011;42456;49.956;20.004;2023-11-21T10:36:45;16.90;;;7.80;;
56567;SDS011;42456;49.956;20.004;2023-11-21T10:39:19;13.50;;;7.00;;
56567;SDS011;42456;49.956;20.004;2023-11-21T10:41:47;13.90;;;6.80;;
56567;SDS011;42456;49.956;20.004;2023-11-21T10:44:15;13.60;;;6.20;;
56567;SDS011;42456;49.956;20.004;2023-11-21T10:46:48;18.50;;;7.30;;
56567;SDS011;42456;49.956;20.004;2023-11-21T10:49:18;13.30;;;7.30;;
56567;SDS011;42456;49.956;20.004;2023-11-21T10:51:45;15.50;;;7.70;;
56567;SDS011;42456;49.956;20.004;2023-11-21T10:54:19;13.00;;;6.60;;
56567;SDS011;42456;49.956;20.004;2023-11-21T10:56:50;14.30;;;6.60;;
56567;SDS011;42456;49.956;20.004;2023-11-21T10:59:19;15.40;;;6.90;;
56567;SDS011;42456;49.956;20.004;2023-11-21T11:01:51;12.90;;;6.10;;
56567;SDS011;42456;49.956;20.004;2023-11-21T11:04:19;17.40;;;7.10;;
56567;SDS011;42456;49.956;20.004;2023-11-21T11:06:50;12.50;;;7.10;;
56567;SDS011;42456;49.956;20.004;2023-11-21T11:09:20;14.30;;;6.20;;
56567;SDS011;42456;49.956;20.004;2023-11-21T11:11:48;12.40;;;5.70;;
56567;SDS011;42456;49.956;20.004;2023-11-21T11:14:15;12.30;;;6.20;;
56567;SDS011;42456;49.956;20.004;2023-11-21T11:16:43;12.80;;;6.00;;
56567;SDS011;42456;49.956;20.004;2023-11-21T11:19:10;12.20;;;6.00;;
56567;SDS011;42456;49.956;20.004;2023-11-21T11:21:45;12.60;;;6.20;;
56567;SDS011;42456;49.956;20.004;2023-11-21T11:24:26;10.90;;;5.10;;
56567;SDS011;42456;49.956;20.004;2023-11-21T11:29:49;10.80;;;5.10;;
56567;SDS011;42456;49.956;20.004;2023-11-21T11:38:01;10.20;;;5.10;;
56567;SDS011;42456;49.956;20.004;2023-11-21T11:40:39;11.20;;;5.20;;
56567;SDS011;42456;49.956;20.004;2023-11-21T11:43:07;9.90;;;5.10;;
56567;SDS011;42456;49.956;20.004;2023-11-21T11:45:34;11.20;;;5.10;;
56567;SDS011;42456;49.956;20.004;2023-11-21T11:48:02;11.30;;;5.20;;
56567;SDS011;42456;49.956;20.004;2023-11-21T11:50:30;8.40;;;5.10;;
56567;SDS011;42456;49.956;20.004;2023-11-21T11:53:19;11.30;;;5.50;;
56567;SDS011;42456;49.956;20.004;2023-11-21T11:55:46;10.30;;;5.30;;
56567;SDS011;42456;49.956;20.004;2023-11-21T11:58:13;10.80;;;5.10;;
56567;SDS011;42456;49.956;20.004;2023-11-21T12:00:40;11.00;;;4.90;;
56567;SDS011;42456;49.956;20.004;2023-11-21T12:03:10;9.60;;;4.70;;
56567;SDS011;42456;49.956;20.004;2023-11-21T12:05:37;9.20;;;4.90;;
56567;SDS011;42456;49.956;20.004;2023-11-21T12:08:10;9.40;;;4.70;;
56567;SDS011;42456;49.956;20.004;2023-11-21T12:10:38;10.20;;;5.10;;
56567;SDS011;42456;49.956;20.004;2023-11-21T12:13:07;10.80;;;4.80;;
56567;SDS011;42456;49.956;20.004;2023-11-21T12:15:37;9.50;;;4.70;;
56567;SDS011;42456;49.956;20.004;2023-11-21T12:18:06;11.60;;;5.10;;
56567;SDS011;42456;49.956;20.004;2023-11-21T12:20:34;10.60;;;4.80;;
56567;SDS011;42456;49.956;20.004;2023-11-21T12:23:08;10.10;;;5.00;;
56567;SDS011;42456;49.956;20.004;2023-11-21T12:25:41;10.00;;;5.20;;
56567;SDS011;42456;49.956;20.004;2023-11-21T12:28:09;11.60;;;5.60;;
56567;SDS011;42456;49.956;20.004;2023-11-21T12:30:36;13.50;;;5.90;;
56567;SDS011;42456;49.956;20.004;2023-11-21T12:33:05;14.00;;;5.40;;
56567;SDS011;42456;49.956;20.004;2023-11-21T12:35:36;14.70;;;6.00;;
56567;SDS011;42456;49.956;20.004;2023-11-21T12:38:04;14.90;;;5.90;;
56567;SDS011;42456;49.956;20.004;2023-11-21T12:40:32;12.10;;;5.90;;
56567;SDS011;42456;49.956;20.004;2023-11-21T12:43:00;12.20;;;5.90;;
56567;SDS011;42456;49.956;20.004;2023-11-21T12:45:30;11.10;;;5.80;;
56567;SDS011;42456;49.956;20.004;2023-11-21T12:48:01;17.50;;;7.00;;
56567;SDS011;42456;49.956;20.004;2023-11-21T12:50:35;16.90;;;7.10;;
56567;SDS011;42456;49.956;20.004;2023-11-21T12:53:05;16.20;;;7.50;;
56567;SDS011;42456;49.956;20.004;2023-11-21T12:55:35;28.50;;;14.80;;
56567;SDS011;42456;49.956;20.004;2023-11-21T12:58:08;16.40;;;8.10;;
56567;SDS011;42456;49.956;20.004;2023-11-21T13:03:13;13.10;;;5.80;;
56567;SDS011;42456;49.956;20.004;2023-11-21T13:05:46;12.50;;;6.10;;
56567;SDS011;42456;49.956;20.004;2023-11-21T13:08:19;12.50;;;5.80;;
56567;SDS011;42456;49.956;20.004;2023-11-21T13:10:53;11.50;;;5.60;;
56567;SDS011;42456;49.956;20.004;2023-11-21T13:13:24;9.90;;;5.10;;
56567;SDS011;42456;49.956;20.004;2023-11-21T13:15:55;9.80;;;5.40;;
56567;SDS011;42456;49.956;20.004;2023-11-21T13:18:28;11.30;;;6.50;;
56567;SDS011;42456;49.956;20.004;2023-11-21T13:20:55;11.80;;;5.80;;
56567;SDS011;42456;49.956;20.004;2023-11-21T13:23:24;13.30;;;6.60;;
56567;SDS011;42456;49.956;20.004;2023-11-21T13:25:52;13.10;;;6.80;;
56567;SDS011;42456;49.956;20.004;2023-11-21T13:28:33;12.60;;;5.90;;
56567;SDS011;42456;49.956;20.004;2023-11-21T13:31:02;13.10;;;6.00;;
56567;SDS011;42456;49.956;20.004;2023-11-21T13:33:40;11.50;;;5.70;;
56567;SDS011;42456;49.956;20.004;2023-11-21T13:36:09;11.40;;;6.40;;
56567;SDS011;42456;49.956;20.004;2023-11-21T13:38:37;13.20;;;6.30;;
56567;SDS011;42456;49.956;20.004;2023-11-21T13:41:09;13.00;;;6.10;;
56567;SDS011;42456;49.956;20.004;2023-11-21T13:43:39;11.60;;;5.80;;
56567;SDS011;42456;49.956;20.004;2023-11-21T13:46:06;13.90;;;5.60;;
56567;SDS011;42456;49.956;20.004;2023-11-21T13:48:40;11.60;;;6.00;;
56567;SDS011;42456;49.956;20.004;2023-11-21T13:51:09;14.70;;;6.60;;
56567;SDS011;42456;49.956;20.004;2023-11-21T13:53:47;12.50;;;6.50;;
56567;SDS011;42456;49.956;20.004;2023-11-21T13:56:17;11.60;;;6.70;;
56567;SDS011;42456;49.956;20.004;2023-11-21T13:58:48;11.40;;;6.80;;
56567;SDS011;42456;49.956;20.004;2023-11-21T14:01:19;13.00;;;6.60;;
56567;SDS011;42456;49.956;20.004;2023-11-21T14:04:00;13.60;;;6.40;;
56567;SDS011;42456;49.956;20.004;2023-11-21T14:06:48;14.40;;;6.80;;
56567;SDS011;42456;49.956;20.004;2023-11-21T14:09:20;14.10;;;7.00;;
56567;SDS011;42456;49.956;20.004;2023-11-21T14:11:53;13.00;;;6.90;;
56567;SDS011;42456;49.956;20.004;2023-11-21T14:14:24;14.90;;;7.30;;
56567;SDS011;42456;49.956;20.004;2023-11-21T14:16:52;15.90;;;7.70;;
56567;SDS011;42456;49.956;20.004;2023-11-21T14:19:20;20.10;;;9.60;;
56567;SDS011;42456;49.956;20.004;2023-11-21T14:21:47;23.20;;;11.60;;
56567;SDS011;42456;49.956;20.004;2023-11-21T14:24:19;23.10;;;11.50;;
56567;SDS011;42456;49.956;20.004;2023-11-21T14:26:46;28.40;;;15.00;;
56567;SDS011;42456;49.956;20.004;2023-11-21T14:29:14;36.20;;;19.90;;
56567;SDS011;42456;49.956;20.004;2023-11-21T14:31:46;41.70;;;22.90;;
56567;SDS011;42456;49.956;20.004;2023-11-21T14:34:14;40.70;;;22.00;;
56567;SDS011;42456;49.956;20.004;2023-11-21T14:36:46;22.00;;;12.10;;
56567;SDS011;42456;49.956;20.004;2023-11-21T14:39:13;21.80;;;11.40;;
56567;SDS011;42456;49.956;20.004;2023-11-21T14:41:51;18.80;;;10.10;;
56567;SDS011;42456;49.956;20.004;2023-11-21T14:44:19;22.30;;;12.30;;
56567;SDS011;42456;49.956;20.004;2023-11-21T14:46:48;17.00;;;9.20;;
56567;SDS011;42456;49.956;20.004;2023-11-21T14:49:18;18.30;;;9.90;;
56567;SDS011;42456;49.956;20.004;2023-11-21T14:51:49;22.00;;;10.50;;
56567;SDS011;42456;49.956;20.004;2023-11-21T14:54:32;19.90;;;10.30;;
56567;SDS011;42456;49.956;20.004;2023-11-21T14:57:07;19.80;;;10.30;;
56567;SDS011;42456;49.956;20.004;2023-11-21T14:59:43;19.70;;;11.20;;
56567;SDS011;42456;49.956;20.004;2023-11-21T15:02:14;21.80;;;12.00;;